createdAt,value
2022-11-15T00:01:42.652Z,88.51
2022-11-15T00:04:27.894Z,89.12
2022-11-15T00:07:33.283Z,89.13
2022-11-15T00:10:17.957Z,89.08
2022-11-15T00:13:07.943Z,89.41
2022-11-15T00:15:53.063Z,89.40
2022-11-15T00:18:39.186Z,89.69
2022-11-15T00:21:24.218Z,89.55
2022-11-15T00:24:09.728Z,89.49
2022-11-15T00:26:54.547Z,89.20
2022-11-15T00:29:43.510Z,89.14
2022-11-15T00:32:32.715Z,89.11
2022-11-15T00:35:18.930Z,89.61
2022-11-15T00:38:04.030Z,89.91
2022-11-15T00:40:48.970Z,89.71
2022-11-15T00:43:34.748Z,90.08
2022-11-15T00:46:19.942Z,90.24
2022-11-15T00:49:04.928Z,90.38
2022-11-15T00:51:49.599Z,90.16
2022-11-15T00:54:34.622Z,90.38
2022-11-15T00:57:19.465Z,90.15
2022-11-15T01:00:05.194Z,90.63
2022-11-15T01:02:51.279Z,90.68
2022-11-15T01:05:38.372Z,90.68
2022-11-15T01:08:23.216Z,90.61
2022-11-15T01:11:11.853Z,90.88
2022-11-15T01:13:56.708Z,90.93
2022-11-15T01:16:42.690Z,90.79
2022-11-15T01:19:27.345Z,90.62
2022-11-15T01:22:12.523Z,90.55
2022-11-15T01:24:57.423Z,90.50
2022-11-15T01:27:42.352Z,90.26
2022-11-15T01:30:27.416Z,90.14
2022-11-15T01:33:12.126Z,90.24
2022-11-15T01:35:57.174Z,90.50
2022-11-15T01:38:42.673Z,90.53
2022-11-15T01:41:30.787Z,90.55
2022-11-15T01:44:34.056Z,90.61
2022-11-15T01:47:30.684Z,90.77
2022-11-15T01:50:21.329Z,90.58
2022-11-15T01:53:06.160Z,90.66
2022-11-15T01:55:51.442Z,90.73
2022-11-15T01:58:38.263Z,90.86
2022-11-15T02:01:25.889Z,90.92
2022-11-15T02:04:19.506Z,90.79
2022-11-15T02:07:06.540Z,90.67
2022-11-15T02:09:53.258Z,90.70
2022-11-15T02:12:38.819Z,90.59
2022-11-15T02:15:31.578Z,90.82
2022-11-15T02:18:32.235Z,90.90
2022-11-15T02:21:33.432Z,90.78
2022-11-15T02:24:46.026Z,90.98
2022-11-15T02:27:52.681Z,90.77
2022-11-15T02:30:54.463Z,90.97
2022-11-15T02:33:55.630Z,91.03
2022-11-15T02:36:58.469Z,90.99
2022-11-15T02:39:52.629Z,91.07
2022-11-15T02:43:08.152Z,91.14
2022-11-15T02:46:43.811Z,91.11
2022-11-15T02:49:32.810Z,91.12
2022-11-15T02:52:20.980Z,90.93
2022-11-15T02:55:31.655Z,90.93
2022-11-15T02:58:39.101Z,91.11
2022-11-15T03:01:32.690Z,90.78
2022-11-15T03:04:20.957Z,90.72
2022-11-15T03:07:11.232Z,90.76
2022-11-15T03:10:00.885Z,90.44
2022-11-15T03:12:58.448Z,90.67
2022-11-15T03:16:17.821Z,90.76
2022-11-15T03:19:13.736Z,91.07
2022-11-15T03:22:03.116Z,91.01
2022-11-15T03:24:53.616Z,91.22
2022-11-15T03:27:43.522Z,91.50
2022-11-15T03:30:30.855Z,91.65
2022-11-15T03:33:16.961Z,91.52
2022-11-15T03:36:02.741Z,91.40
2022-11-15T03:38:48.435Z,91.46
2022-11-15T03:42:00.681Z,91.45
2022-11-15T03:45:13.903Z,91.45
2022-11-15T03:48:04.539Z,91.32
2022-11-15T03:50:49.883Z,91.45
2022-11-15T03:53:34.936Z,91.54
2022-11-15T03:56:20.581Z,91.56
2022-11-15T03:59:05.525Z,91.33
2022-11-15T04:01:50.421Z,91.46
2022-11-15T04:04:35.133Z,91.38
2022-11-15T04:07:20.381Z,91.45
2022-11-15T04:10:06.147Z,91.31
2022-11-15T04:12:51.100Z,91.30
2022-11-15T04:15:36.512Z,91.38
2022-11-15T04:18:21.557Z,91.42
2022-11-15T04:21:27.692Z,92.03
2022-11-15T04:24:12.448Z,92.31
2022-11-15T04:26:57.803Z,92.48
2022-11-15T04:29:43.042Z,92.44
2022-11-15T04:32:28.043Z,92.60
2022-11-15T04:35:13.103Z,92.71
2022-11-15T04:37:59.028Z,92.46
2022-11-15T04:40:43.923Z,92.19
2022-11-15T04:43:30.156Z,92.00
2022-11-15T04:46:15.142Z,92.13
2022-11-15T04:49:00.370Z,92.40
2022-11-15T04:51:45.636Z,92.40
2022-11-15T04:54:30.449Z,92.24
2022-11-15T04:57:15.731Z,92.33
2022-11-15T05:00:00.369Z,92.11
2022-11-15T05:03:03.872Z,91.84
2022-11-15T05:05:48.501Z,91.69
2022-11-15T05:08:33.541Z,91.77
2022-11-15T05:11:18.831Z,91.94
2022-11-15T05:14:03.564Z,91.93
2022-11-15T05:16:48.707Z,91.99
2022-11-15T05:19:33.808Z,91.81
2022-11-15T05:22:19.343Z,91.86
2022-11-15T05:25:05.070Z,91.75
2022-11-15T05:27:50.071Z,91.68
2022-11-15T05:30:35.175Z,91.05
2022-11-15T05:33:22.851Z,91.02
2022-11-15T05:36:22.304Z,91.15
2022-11-15T05:39:09.319Z,91.25
2022-11-15T05:41:59.705Z,91.13
2022-11-15T05:44:49.486Z,91.22
2022-11-15T05:47:37.172Z,91.22
2022-11-15T05:50:22.113Z,91.17
2022-11-15T05:53:08.313Z,90.99
2022-11-15T05:55:53.831Z,91.07
2022-11-15T05:58:38.634Z,90.77
2022-11-15T06:01:25.546Z,90.79
2022-11-15T06:04:10.695Z,91.10
2022-11-15T06:06:55.674Z,91.39
2022-11-15T06:09:41.184Z,91.67
2022-11-15T06:12:26.002Z,91.74
2022-11-15T06:15:10.978Z,91.55
2022-11-15T06:17:59.448Z,91.34
2022-11-15T06:20:44.391Z,91.10
2022-11-15T06:23:32.976Z,91.16
2022-11-15T06:26:18.318Z,91.22
2022-11-15T06:29:04.822Z,91.15
2022-11-15T06:31:49.746Z,91.18
2022-11-15T06:34:36.089Z,91.35
2022-11-15T06:37:21.031Z,91.39
2022-11-15T06:40:07.300Z,91.15
2022-11-15T06:42:58.198Z,91.15
2022-11-15T06:45:42.932Z,91.13
2022-11-15T06:48:29.932Z,91.09
2022-11-15T06:51:15.035Z,91.23
2022-11-15T06:54:00.130Z,91.42
2022-11-15T06:56:44.960Z,91.38
2022-11-15T06:59:29.827Z,91.42
2022-11-15T07:02:15.218Z,91.43
2022-11-15T07:05:00.304Z,91.47
2022-11-15T07:07:52.811Z,91.57
2022-11-15T07:10:37.737Z,91.42
2022-11-15T07:13:26.409Z,91.27
2022-11-15T07:16:12.028Z,91.29
2022-11-15T07:18:57.279Z,91.22
2022-11-15T07:21:42.423Z,91.18
2022-11-15T07:24:27.355Z,91.11
2022-11-15T07:27:12.374Z,91.23
2022-11-15T07:29:57.760Z,91.29
2022-11-15T07:32:42.805Z,91.20
2022-11-15T07:35:28.704Z,91.13
2022-11-15T07:38:15.275Z,91.08
2022-11-15T07:41:03.165Z,91.06
2022-11-15T07:43:51.873Z,90.86
2022-11-15T07:46:37.113Z,90.57
2022-11-15T07:49:22.233Z,90.38
2022-11-15T07:52:07.089Z,90.18
2022-11-15T07:54:52.043Z,90.29
2022-11-15T07:57:37.304Z,90.57
2022-11-15T08:00:22.775Z,90.46
2022-11-15T08:03:12.581Z,90.42
2022-11-15T08:05:57.720Z,90.30
2022-11-15T08:08:42.464Z,90.34
2022-11-15T08:11:27.162Z,90.41
2022-11-15T08:14:12.270Z,90.12
2022-11-15T08:16:56.996Z,89.98
2022-11-15T08:19:42.017Z,89.94
2022-11-15T08:22:26.828Z,89.74
2022-11-15T08:25:11.933Z,89.97
2022-11-15T08:28:00.600Z,89.93
2022-11-15T08:30:45.890Z,90.03
2022-11-15T08:33:33.064Z,90.21
2022-11-15T08:36:18.364Z,89.76
2022-11-15T08:39:03.394Z,89.50
2022-11-15T08:41:48.591Z,89.60
2022-11-15T08:44:33.632Z,89.42
2022-11-15T08:47:18.495Z,89.21
2022-11-15T08:50:03.671Z,89.26
2022-11-15T08:52:48.977Z,89.36
2022-11-15T08:55:37.523Z,89.55
2022-11-15T08:58:22.483Z,89.48
2022-11-15T09:01:18.348Z,89.78
2022-11-15T09:04:04.369Z,89.69
2022-11-15T09:06:49.621Z,89.68
2022-11-15T09:09:35.067Z,89.23
2022-11-15T09:12:19.778Z,89.27
2022-11-15T09:15:06.474Z,89.09
2022-11-15T09:17:51.320Z,88.96
2022-11-15T09:20:36.709Z,88.97
2022-11-15T09:23:24.614Z,89.03
2022-11-15T09:26:09.460Z,88.95
2022-11-15T09:28:54.388Z,89.09
2022-11-15T09:31:39.068Z,88.96
2022-11-15T09:34:24.197Z,88.68
2022-11-15T09:37:08.906Z,88.86
2022-11-15T09:39:53.532Z,88.59
2022-11-15T09:43:16.485Z,88.39
2022-11-15T09:46:32.699Z,88.14
2022-11-15T09:49:18.760Z,88.03
2022-11-15T09:52:24.131Z,87.89
2022-11-15T09:54:54.347Z,88.25
2022-11-15T09:58:04.259Z,88.26
2022-11-15T10:00:47.030Z,88.22
2022-11-15T10:03:17.040Z,88.37
2022-11-15T10:05:46.309Z,87.89
2022-11-15T10:08:28.320Z,87.63
2022-11-15T10:11:30.379Z,86.74
2022-11-15T10:13:50.506Z,87.32
2022-11-15T10:16:47.472Z,87.01
2022-11-15T10:19:29.069Z,87.03
2022-11-15T10:22:13.842Z,87.54
2022-11-15T10:24:45.440Z,87.29
2022-11-15T10:27:15.525Z,87.43
2022-11-15T10:29:47.337Z,87.16
2022-11-15T10:32:15.915Z,86.95
2022-11-15T10:34:42.758Z,86.63
2022-11-15T10:37:09.677Z,86.50
2022-11-15T10:39:36.318Z,86.48
2022-11-15T10:42:28.490Z,86.61
2022-11-15T10:44:55.755Z,86.71
2022-11-15T10:47:28.612Z,87.08
2022-11-15T10:49:56.871Z,86.74
2022-11-15T10:52:24.824Z,86.84
2022-11-15T10:55:04.975Z,86.28
2022-11-15T10:57:36.576Z,86.20
2022-11-15T11:00:07.684Z,85.83
2022-11-15T11:02:56.780Z,85.86
2022-11-15T11:05:42.521Z,85.65
2022-11-15T11:08:12.166Z,85.85
2022-11-15T11:10:51.362Z,86.12
2022-11-15T11:13:25.154Z,85.96
2022-11-15T11:16:10.781Z,85.80
2022-11-15T11:19:06.998Z,85.77
2022-11-15T11:22:12.517Z,85.66
2022-11-15T11:24:50.042Z,85.02
2022-11-15T11:27:32.898Z,85.73
2022-11-15T11:30:22.340Z,85.57
2022-11-15T11:33:16.783Z,85.98
2022-11-15T11:35:53.517Z,85.70
2022-11-15T11:38:34.383Z,85.50
2022-11-15T11:41:28.989Z,85.90
2022-11-15T11:44:18.500Z,86.18
2022-11-15T11:46:50.183Z,85.76
2022-11-15T11:49:23.452Z,85.45
2022-11-15T11:52:22.025Z,84.87
2022-11-15T11:54:58.941Z,85.09
2022-11-15T11:57:28.036Z,84.86
2022-11-15T12:00:01.896Z,84.94
2022-11-15T12:02:34.916Z,85.48
2022-11-15T12:05:17.576Z,85.66
2022-11-15T12:07:46.594Z,85.32
2022-11-15T12:10:29.042Z,85.85
2022-11-15T12:12:55.471Z,85.62
2022-11-15T12:15:54.007Z,85.43
2022-11-15T12:18:20.330Z,85.37
2022-11-15T12:20:55.808Z,85.59
2022-11-15T12:23:29.248Z,85.12
2022-11-15T12:26:03.536Z,84.98
2022-11-15T12:29:05.989Z,85.33
2022-11-15T12:31:49.275Z,85.59
2022-11-15T12:34:21.500Z,84.83
2022-11-15T12:36:50.124Z,85.57
2022-11-15T12:39:17.628Z,85.16
2022-11-15T12:42:07.067Z,84.60
2022-11-15T12:44:39.412Z,84.76
2022-11-15T12:47:26.054Z,84.96
2022-11-15T12:49:53.289Z,85.18
2022-11-15T12:52:20.623Z,85.21
2022-11-15T12:54:51.146Z,85.63
2022-11-15T12:57:20.348Z,85.49
2022-11-15T12:59:55.620Z,85.58
2022-11-15T13:02:23.343Z,85.64
2022-11-15T13:04:51.859Z,85.44
2022-11-15T13:07:39.334Z,85.30
2022-11-15T13:10:30.543Z,84.77
2022-11-15T13:12:59.424Z,84.74
2022-11-15T13:15:59.220Z,84.93
2022-11-15T13:18:34.298Z,84.99
2022-11-15T13:21:22.375Z,85.34
2022-11-15T13:23:53.405Z,85.54
2022-11-15T13:26:21.111Z,85.94
2022-11-15T13:28:52.221Z,85.92
2022-11-15T13:31:37.858Z,85.74
2022-11-15T13:34:44.060Z,85.96
2022-11-15T13:37:02.282Z,85.25
2022-11-15T13:39:30.130Z,85.49
2022-11-15T13:41:57.605Z,85.09
2022-11-15T13:44:31.587Z,84.84
2022-11-15T13:47:19.862Z,85.05
2022-11-15T13:49:47.283Z,85.18
2022-11-15T13:52:16.735Z,85.29
2022-11-15T13:55:03.780Z,85.21
2022-11-15T13:57:44.864Z,85.15
2022-11-15T14:00:45.055Z,85.17
2022-11-15T14:03:27.922Z,85.16
2022-11-15T14:06:21.961Z,85.01
2022-11-15T14:08:59.462Z,84.59
2022-11-15T14:11:26.291Z,84.40
2022-11-15T14:14:07.938Z,84.84
2022-11-15T14:16:43.018Z,84.81
2022-11-15T14:19:21.641Z,84.88
2022-11-15T14:22:11.538Z,85.16
2022-11-15T14:24:39.322Z,85.34
2022-11-15T14:27:27.485Z,85.55
2022-11-15T14:29:54.759Z,85.58
2022-11-15T14:32:26.881Z,86.09
2022-11-15T14:35:01.203Z,85.94
2022-11-15T14:37:35.058Z,85.92
2022-11-15T14:40:04.454Z,85.72
2022-11-15T14:42:31.525Z,85.64
2022-11-15T14:44:58.583Z,85.83
2022-11-15T14:47:24.957Z,85.62
2022-11-15T14:49:51.325Z,85.36
2022-11-15T14:52:33.964Z,85.50
2022-11-15T14:55:02.622Z,85.57
2022-11-15T14:57:29.953Z,85.56
2022-11-15T14:59:57.129Z,85.46
2022-11-15T15:02:26.041Z,85.75
2022-11-15T15:04:53.254Z,85.80
2022-11-15T15:07:20.623Z,85.51
2022-11-15T15:09:47.262Z,85.25
2022-11-15T15:12:19.861Z,85.05
2022-11-15T15:14:47.866Z,85.17
2022-11-15T15:17:14.690Z,85.32
2022-11-15T15:19:41.701Z,85.29
2022-11-15T15:22:19.929Z,85.89
2022-11-15T15:24:46.659Z,85.57
2022-11-15T15:27:14.581Z,85.62
2022-11-15T15:29:41.344Z,85.67
2022-11-15T15:33:38.795Z,85.58
2022-11-15T15:36:10.344Z,85.49
2022-11-15T15:38:38.010Z,85.25
2022-11-15T15:41:10.489Z,85.25
2022-11-15T15:43:38.774Z,85.73
2022-11-15T15:46:11.200Z,85.70
2022-11-15T15:48:40.467Z,85.76
2022-11-15T15:51:14.318Z,86.25
2022-11-15T15:53:46.496Z,86.39
2022-11-15T15:56:14.311Z,86.31
2022-11-15T15:58:42.043Z,86.06
2022-11-15T16:01:09.907Z,86.02
2022-11-15T16:03:37.673Z,86.25
2022-11-15T16:06:06.888Z,86.30
2022-11-15T16:08:53.254Z,86.44
2022-11-15T16:11:22.628Z,86.46
2022-11-15T16:13:50.343Z,86.68
2022-11-15T16:16:19.047Z,86.78
2022-11-15T16:18:46.788Z,86.93
2022-11-15T16:21:14.638Z,87.13
2022-11-15T16:23:42.337Z,86.94
2022-11-15T16:26:28.468Z,86.40
2022-11-15T16:28:56.508Z,86.07
2022-11-15T16:31:24.206Z,86.12
2022-11-15T16:33:51.914Z,86.06
2022-11-15T16:36:28.474Z,86.11
2022-11-15T16:38:59.714Z,86.33
2022-11-15T16:41:27.640Z,86.55
2022-11-15T16:43:55.551Z,87.03
2022-11-15T16:46:25.881Z,87.10
2022-11-15T16:48:54.324Z,86.99
2022-11-15T16:51:23.579Z,86.83
2022-11-15T16:53:51.546Z,86.94
2022-11-15T16:56:27.329Z,86.66
2022-11-15T16:58:58.607Z,86.70
2022-11-15T17:01:33.041Z,86.79
2022-11-15T17:04:12.891Z,87.06
2022-11-15T17:06:42.732Z,86.94
2022-11-15T17:09:12.681Z,86.88
2022-11-15T17:11:41.394Z,86.58
2022-11-15T17:14:10.475Z,86.69
2022-11-15T17:16:42.241Z,86.87
2022-11-15T17:19:18.228Z,86.59
2022-11-15T17:21:48.120Z,86.86
2022-11-15T17:24:17.231Z,87.25
2022-11-15T17:26:44.929Z,87.55
2022-11-15T17:29:12.681Z,87.60
2022-11-15T17:34:45.292Z,87.32
2022-11-15T17:37:13.054Z,86.58
2022-11-15T17:39:40.906Z,86.93
2022-11-15T17:42:09.423Z,86.85
2022-11-15T17:44:38.176Z,87.15
2022-11-15T17:47:05.911Z,87.38
2022-11-15T17:49:35.025Z,87.37
2022-11-15T17:52:02.716Z,87.32
2022-11-15T17:54:30.397Z,87.09
2022-11-15T17:56:58.105Z,87.40
2022-11-15T17:59:25.913Z,87.34
2022-11-15T18:01:56.170Z,87.01
2022-11-15T18:04:28.354Z,87.16
2022-11-15T18:06:56.494Z,87.48
2022-11-15T18:09:25.831Z,87.76
2022-11-15T18:11:55.095Z,87.88
2022-11-15T18:14:22.827Z,87.46
2022-11-15T18:16:50.706Z,87.48
2022-11-15T18:19:18.421Z,86.94
2022-11-15T18:22:00.527Z,86.74
2022-11-15T18:24:30.624Z,86.94
2022-11-15T18:26:59.429Z,87.28
2022-11-15T18:29:28.144Z,87.45
2022-11-15T18:31:56.409Z,87.39
2022-11-15T18:34:25.647Z,87.39
2022-11-15T18:36:53.854Z,87.34
2022-11-15T18:39:21.625Z,87.44
2022-11-15T18:41:49.683Z,87.23
2022-11-15T18:44:18.911Z,87.48
2022-11-15T18:46:46.913Z,87.56
2022-11-15T18:49:17.080Z,87.62
2022-11-15T18:51:44.904Z,87.74
2022-11-15T18:54:15.110Z,87.95
2022-11-15T18:56:47.060Z,87.82
2022-11-15T18:59:15.472Z,87.89
2022-11-15T19:01:48.152Z,88.11
2022-11-15T19:04:18.513Z,87.96
2022-11-15T19:06:48.395Z,87.60
2022-11-15T19:09:18.436Z,87.81
2022-11-15T19:11:48.197Z,88.21
2022-11-15T19:14:16.716Z,87.93
2022-11-15T19:16:52.588Z,87.85
2022-11-15T19:19:27.788Z,87.97
2022-11-15T19:21:57.468Z,87.54
2022-11-15T19:24:27.196Z,87.48
2022-11-15T19:26:55.337Z,87.69
2022-11-15T19:29:23.076Z,87.83
2022-11-15T19:31:50.878Z,88.18
2022-11-15T19:34:18.658Z,88.12
2022-11-15T19:36:46.675Z,88.53
2022-11-15T19:39:15.409Z,88.46
2022-11-15T19:41:44.270Z,88.36
2022-11-15T19:44:13.178Z,88.47
2022-11-15T19:46:41.669Z,88.19
2022-11-15T19:49:11.199Z,88.30
2022-11-15T19:51:42.466Z,88.37
2022-11-15T19:54:10.886Z,88.29
2022-11-15T19:56:40.063Z,88.43
2022-11-15T19:59:08.927Z,88.62
2022-11-15T20:01:38.840Z,88.76
2022-11-15T20:04:08.270Z,88.63
2022-11-15T20:06:39.331Z,88.47
2022-11-15T20:09:08.596Z,88.12
2022-11-15T20:11:38.217Z,87.89
2022-11-15T20:14:07.892Z,88.22
2022-11-15T20:16:35.861Z,88.30
2022-11-15T20:19:03.832Z,88.42
2022-11-15T20:21:31.630Z,88.67
2022-11-15T20:23:59.566Z,88.74
2022-11-15T20:26:27.412Z,88.60
2022-11-15T20:29:01.030Z,88.84
2022-11-15T20:31:30.391Z,88.99
2022-11-15T20:33:58.735Z,88.79
2022-11-15T20:36:26.543Z,88.96
2022-11-15T20:38:59.223Z,89.16
2022-11-15T20:41:27.697Z,89.01
2022-11-15T20:43:55.946Z,89.12
2022-11-15T20:46:24.027Z,88.83
2022-11-15T20:48:51.779Z,89.00
2022-11-15T20:51:20.281Z,89.14
2022-11-15T20:53:48.451Z,89.11
2022-11-15T20:56:18.911Z,89.33
2022-11-15T20:58:47.436Z,89.37
2022-11-15T21:01:17.276Z,88.93
2022-11-15T21:03:47.148Z,88.42
2022-11-15T21:06:14.986Z,88.48
2022-11-15T21:09:01.282Z,88.25
2022-11-15T21:11:47.789Z,88.62
2022-11-15T21:14:15.527Z,88.75
2022-11-15T21:16:43.335Z,89.06
2022-11-15T21:19:11.384Z,89.14
2022-11-15T21:21:39.401Z,89.53
2022-11-15T21:24:09.076Z,89.40
2022-11-15T21:26:37.185Z,89.35
2022-11-15T21:29:05.122Z,89.40
2022-11-15T21:31:33.024Z,89.38
2022-11-15T21:34:02.706Z,89.33
2022-11-15T21:36:30.420Z,89.21
2022-11-15T21:38:58.209Z,89.52
2022-11-15T21:41:26.055Z,89.22
2022-11-15T21:44:00.784Z,89.01
2022-11-15T21:46:30.157Z,89.13
2022-11-15T21:48:58.594Z,89.29
2022-11-15T21:51:26.356Z,89.43
2022-11-15T21:53:55.730Z,89.86
2022-11-15T21:56:25.712Z,89.77
2022-11-15T21:58:54.274Z,89.52
2022-11-15T22:01:42.854Z,89.27
2022-11-15T22:04:10.613Z,89.13
2022-11-15T22:06:38.467Z,89.20
2022-11-15T22:09:06.975Z,89.45
2022-11-15T22:11:35.268Z,89.77
2022-11-15T22:14:03.497Z,89.70
2022-11-15T22:16:31.738Z,89.92
2022-11-15T22:18:59.973Z,90.08
2022-11-15T22:21:27.853Z,90.07
2022-11-15T22:23:55.901Z,90.10
2022-11-15T22:26:24.298Z,89.81
2022-11-15T22:28:53.806Z,89.60
2022-11-15T22:31:21.698Z,89.71
2022-11-15T22:33:49.517Z,90.15
2022-11-15T22:36:17.519Z,90.08
2022-11-15T22:38:45.386Z,90.24
2022-11-15T22:41:13.372Z,90.34
2022-11-15T22:43:41.618Z,90.10
2022-11-15T22:46:10.779Z,89.49
2022-11-15T22:48:39.610Z,89.73
2022-11-15T22:51:08.428Z,89.40
2022-11-15T22:53:36.291Z,89.61
2022-11-15T22:56:06.323Z,89.78
2022-11-15T22:58:34.553Z,89.99
2022-11-15T23:01:05.111Z,89.82
2022-11-15T23:03:34.146Z,89.70
2022-11-15T23:06:07.098Z,89.53
2022-11-15T23:08:35.404Z,89.56
2022-11-15T23:11:23.267Z,89.08
2022-11-15T23:13:52.388Z,89.60
2022-11-15T23:16:22.544Z,89.64
2022-11-15T23:18:54.456Z,89.75
2022-11-15T23:21:50.302Z,89.61
2022-11-15T23:24:18.958Z,89.61
2022-11-15T23:26:48.597Z,89.37
2022-11-15T23:29:18.826Z,89.25
2022-11-15T23:32:05.537Z,89.24
2022-11-15T23:34:36.967Z,89.30
2022-11-15T23:37:06.356Z,89.58
2022-11-15T23:39:34.228Z,89.65
2022-11-15T23:42:07.659Z,89.77
2022-11-15T23:44:37.339Z,89.88
2022-11-15T23:47:05.151Z,89.84
2022-11-15T23:49:33.062Z,89.86
2022-11-15T23:52:00.858Z,90.07
2022-11-15T23:54:28.669Z,90.14
2022-11-15T23:56:56.417Z,89.91
2022-11-15T23:59:24.371Z,89.70
